Anadyr', Russia

1:04 PM ANAT on October 26, 2014 (GMT +1200)
Ugolny | Change Station
CLOSE
Current Station
Airport
Location: Anadyr',
Elevation: 203 ft
Nearby Weather Stations

Elev 203 ft 64.78 °N, 177.57 °E | Updated 34 minutes ago

Light Snow
Light Snow Mist
16 °F
Feels Like 6 °F
N
7
Wind Variable Wind from NNE

Today
High -- | Low -- °F
--% Chance of Precip.
Yesterday
High -- | Low -- °F
Precip. -- in
7:34 AM 4:11 PM
Waxing Crescent, 5% visible
Pressure 29.47 in
Visibility 1.7 miles
Clouds Overcast 8000 ft
Windchill 6 °F
Dew Point 14 °F
Humidity 93%
Rainfall 0.00 in
Snow Depth Not available.
UV 0 out of 12
Pollen Not available.
Air Quality Not available.
Flu Activity Not available.
METAR UHMA 260030Z 02003MPS 2700 -SN BR OVC080 M09/M10 Q0998 NOSIG RMK QFE745/0993

More Conditions Fewer Conditions

Pressure 29.47 in
Visibility 1.7 miles
Clouds Overcast 8000 ft
Windchill 6 °F
Dew Point 14 °F
Humidity 93%
Rainfall 0.00 in
Snow Depth Not available.
UV 0 out of 12
Pollen Not available.
Air Quality Not available.
Flu Activity Not available.
METAR UHMA 260030Z 02003MPS 2700 -SN BR OVC080 M09/M10 Q0998 NOSIG RMK QFE745/0993

More Conditions Fewer Conditions

10-Day Weather Forecast

Almanac

Astronomy

Oct. 26, 2014 Rise Set
Actual Time 7:34 AM ANAT 4:11 PM ANAT
Civil Twilight 6:42 AM ANAT 5:03 PM ANAT
Nautical Twilight 5:44 AM ANAT 6:01 PM ANAT
Astronomical Twilight 4:48 AM ANAT 6:57 PM ANAT
Moon 10:06 AM ANAT 5:05 PM ANAT
Length of Visible Light 10h 21m
Length of Day
8h 36m
Tomorrow will be 6m 43s shorter.
Waxing Crescent, 5% of the Moon is Illuminated
Oct 25
Waxing Crescent
Oct 30
First Quarter
Nov 6
Full
Nov 14
Last Quarter
Nov 22
New

Yesterday's Extremes

Country Highs Country Lows

Community

WunderPhotos

Upload Photos

1,765,057 photos uploaded!

Nearby

Snow Depth

Not available.

Earthquake Activity

City Distance Mag. Time & Date
No recent earthquake activity has been reported nearby.
Minimum magnitude displayed is 2.5.

Coastal Water Temperatures

Place Temperature
No Stations Reporting

Nearby Weather Stations